Boyd Deep Canyon Reserve, California Weather observations

Data are for 10 minute period ending at time listed.
 Day   Time   Solar   Ave.   Ave.  Ave.  Vector  Max.   Baro.   Total    
  of    of     Rad.   Air    Rel.  Wind   Wind   Wind  Press.  Precip.   
Year   Day            Temp.  Hum.  Speed  Dir.   Gust                    
2014   (PST)  Kw/m2    F      %     mph   deg.    mph    mb.     in.     
-------------------------------------------------------------------------
 293    5:20   0.00   78.0    24    2.5   130     5.6   975.1    0.00 
 293    5:30   0.00   77.5    24    5.4   191     9.2   975.1    0.00 
 293    5:40   0.00   78.6    23    6.2   190    10.3   975.1    0.00 
 293    5:50   0.00   78.9    23    7.0   177    11.4   975.2    0.00 
 293    6:00   0.00   79.3    22    6.3   167    13.2   975.2    0.00 
 293    6:10   0.00   79.4    22    7.2   168    12.7   975.3    0.00 
 293    6:20   0.01   77.9    25    4.3    30     8.3   975.4    0.00 
 293    6:30   0.03   74.2    30    3.9    20     6.9   975.6    0.00 
 293    6:40   0.08   73.4    36    3.1    61     5.0   975.8    0.00 
 293    6:50   0.11   74.0    38    1.1    95     2.3   976.0    0.00 
 293    7:00   0.14   75.7    35    0.7    93     1.8   976.1    0.00 
 293    7:10   0.17   77.5    33    0.0   133     0.6   976.2    0.00 
 293    7:20   0.20   77.0    34    1.9    75     3.1   976.4    0.00 
 293    7:30   0.24   76.6    34    1.4    35     3.7   976.5    0.00 
 293    7:40   0.27   77.3    33    2.1   186     3.4   976.7    0.00 
 293    7:50   0.31   77.9    31    2.3   179     3.4   976.7    0.00 
 293    8:00   0.34   78.8    29    3.2   180     4.5   976.8    0.00 
 293    8:10   0.37   79.6    28    1.8   166     3.4   976.8    0.00 
 293    8:20   0.40   81.3    27    0.9    48     2.9   976.8    0.00 
 293    8:30   0.43   81.1    28    2.3     1     4.8   976.7    0.00 
 293    8:40   0.46   80.0    29    3.2     6     5.0   976.7    0.00 
 293    8:50   0.49   80.2    30    4.0     7     6.4   976.7    0.00 
 293    9:00   0.52   79.7    31    3.9     2     7.2   976.7    0.00 
 293    9:10   0.54   79.3    32    5.0   359     6.6   976.8    0.00 
 293    9:20   0.56   79.0    32    4.8     4     6.7   976.8    0.00 
 293    9:30   0.59   79.5    33    4.7   360     7.2   976.9    0.00 
 293    9:40   0.61   79.4    34    5.4   356     7.6   976.9    0.00 
 293    9:50   0.63   79.8    34    5.5   353     7.7   976.8    0.00 
 293   10:00   0.64   80.2    35    4.8     3     7.6   976.8    0.00 
 293   10:10   0.66   80.7    34    4.9   351     7.5   976.7    0.00 
 293   10:20   0.68   80.9    35    5.3   353     7.7   976.5    0.00 
 293   10:30   0.69   81.1    37    5.2     0     9.2   976.4    0.00 
 293   10:40   0.70   81.7    37    4.7   356     8.3   976.4    0.00 
 293   10:50   0.71   82.0    36    4.7     1     9.0   976.3    0.00 
 293   11:00   0.72   82.4    37    5.0     6     9.5   976.2    0.00 
 293   11:10   0.72   82.6    37    5.1   349     8.3   976.1    0.00 
 293   11:20   0.73   83.1    37    4.8   352     7.9   976.0    0.00 
 293   11:30   0.73   83.2    37    3.2   356     5.9   975.8    0.00 
 293   11:40   0.72   83.9    36    3.9    22     7.5   975.7    0.00 
 293   11:50   0.72   83.8    36    4.6   322     9.3   975.6    0.00 
 293   12:00   0.72   84.0    35    3.6   299     6.8   975.4    0.00 
 293   12:10   0.69   84.4    35    3.9   350    10.6   975.2    0.00 
 293   12:20   0.70   85.1    34    4.6   357     9.9   975.2    0.00 
 293   12:30   0.70   85.0    33    4.7    13    10.0   975.1    0.00 
 293   12:40   0.69   85.1    34    5.2    30     8.9   975.1    0.00 
 293   12:50   0.68   85.0    34    4.9   348    11.1   975.1    0.00 
 293   13:00   0.66   85.9    33    4.4   359     8.3   975.0    0.00 
 293   13:10   0.64   86.1    32    3.7    13     9.8   974.9    0.00 
 293   13:20   0.63   86.8    31    3.4   345     8.0   974.9    0.00 
 293   13:30   0.59   87.2    30    3.0    39     6.3   974.9    0.00 
 293   13:40   0.59   87.8    29    2.9    57     9.1   974.8    0.00 
 293   13:50   0.28   86.0    31    5.6   343     8.0   974.8    0.00 
 293   14:00   0.44   86.4    30    3.1    39     6.1   974.6    0.00 
 293   14:10   0.51   88.0    28    1.9   120     4.6   974.4    0.00 
 293   14:20   0.45   87.9    29    3.2    17     9.6   974.3    0.00 
 293   14:30   0.37   87.2    30    5.0   354     8.9   974.3    0.00 
 293   14:40   0.49   87.7    28    3.4   352     7.7   974.2    0.00 
 293   14:50   0.42   87.9    28    4.4     6     6.9   974.1    0.00 
 293   15:00   0.40   87.4    29    3.2    21     7.3   974.1    0.00 
 293   15:10   0.40   87.5    28    4.7     2     6.6   974.1    0.00 
 293   15:20   0.33   87.6    28    3.7   359     6.6   974.0    0.00 
 293   15:30   0.28   87.8    27    2.2   331     5.9   973.9    0.00 
 293   15:40   0.23   87.9    27    2.7   341     5.7   973.8    0.00 
 293   15:50   0.08   87.1    27    3.6   360     6.7   973.7    0.00 
 293   16:00   0.05   86.3    27    4.1   359     6.4   973.6    0.00 
 293   16:10   0.03   85.8    27    4.0   353     5.8   973.5    0.00 
 293   16:20   0.03   85.8    26    4.1     0     5.6   973.3    0.00 
 293   16:30   0.03   85.5    26    3.3     1     4.3   973.2    0.00 
 293   16:40   0.01   85.4    25    2.8     4     3.7   973.2    0.00 
 293   16:50   0.01   85.2    24    2.5   359     3.2   973.2    0.00 
 293   17:00   0.01   84.9    25    2.3    10     3.7   973.3    0.00 
 293   17:10   0.00   84.3    25    1.7    76     3.0   973.4    0.00 
 293   17:20   0.00   84.1    25    1.8    99     2.8   973.5    0.00 
 293   17:30   0.00   83.8    25    2.0   112     3.1   973.6    0.00 
 293   17:40   0.00   83.3    26    1.8   156     3.2   973.7    0.00 
 293   17:50   0.00   83.2    27    2.9   171     3.9   973.8    0.00 
 293   18:00   0.00   83.5    26    5.1   175     9.3   973.9    0.00 
 293   18:10   0.00   84.1    24    9.8   173    16.1   974.0    0.00 
 293   18:20   0.00   83.8    25   10.5   173    14.1   974.0    0.00 
 293   18:30   0.00   83.6    25    9.6   174    14.0   974.1    0.00 
 293   18:40   0.00   83.1    26    9.9   214    14.5   974.1    0.00 
 293   18:50   0.00   82.8    26    5.4   213     7.5   974.1    0.00 
 293   19:00   0.00   82.6    26    5.2   175     9.5   974.2    0.00 
 293   19:10   0.00   82.7    26    8.3   167    13.2   974.2    0.00 
 293   19:20   0.00   82.6    26   11.6   174    18.0   974.3    0.00 
 293   19:30   0.00   82.5    26    9.3   177    17.2   974.3    0.00 
 293   19:40   0.00   82.3    26    8.4   177    14.1   974.4    0.00 
 293   19:50   0.00   82.0    26    5.7   224    10.9   974.5    0.00 
 293   20:00   0.00   81.7    25    3.6   227     7.5   974.6    0.00 
 293   20:10   0.00   81.7    25    4.3   228     8.2   974.7    0.00 
 293   20:20   0.00   81.6    24    2.5   206     7.9   974.7    0.00 
 293   20:30   0.00   81.6    24    4.4   239    11.4   974.8    0.00 
 293   20:40   0.00   81.6    24    5.2   262     8.1   974.9    0.00 
 293   20:50   0.00   81.4    24    4.1   264     8.7   974.9    0.00 
 293   21:00   0.00   81.5    23    5.7   238     9.9   975.0    0.00 
 293   21:10   0.00   81.8    22    5.4   240    13.4   974.9    0.00 
 293   21:20   0.00   81.9    23    5.3   232    10.4   975.0    0.00 
 293   21:30   0.00   79.8    32    7.9   328    12.1   975.0    0.00 
 293   21:40   0.00   77.8    36    4.7   357     8.9   975.0    0.00 
 293   21:50   0.00   76.4    41    3.8    15     7.5   975.1    0.00 
 293   22:00   0.00   76.1    42    3.4    77     5.5   975.1    0.00 
 293   22:10   0.00   75.9    42    2.1    94     4.2   975.1    0.00 
 293   22:20   0.00   75.6    42    0.4   207     2.7   975.1    0.00 
 293   22:30   0.00   74.8    43    1.3   196     3.4   975.0    0.00 
 293   22:40   0.00   74.5    44    2.1    63     3.4   975.1    0.00 
 293   22:50   0.00   74.2    44    1.0    99     2.2   975.1    0.00 
 293   23:00   0.00   73.8    45    0.8    42     2.0   975.1    0.00 
 293   23:10   0.00   73.5    45    1.2   203     2.2   975.0    0.00 
 293   23:20   0.00   72.6    46    0.7   198     2.0   975.0    0.00 
 293   23:30   0.00   72.4    46    0.6   232     1.5   974.9    0.00 
 293   23:40   0.00   72.8    46    0.6   168     2.0   974.9    0.00 
 293   23:50   0.00   73.2    44    1.1    91     3.5   974.8    0.00 
 294    0:00   0.00   73.5    41    2.6    48     4.5   974.8    0.00 
 294    0:10   0.00   73.6    38    2.0    37     4.1   974.8    0.00 
 294    0:20   0.00   74.2    36    4.0    60     5.8   974.8    0.00 
 294    0:30   0.00   73.7    43    2.0    40     3.9   974.8    0.00 
 294    0:40   0.00   72.9    48    3.3    73     5.5   974.9    0.00 
 294    0:50   0.00   72.6    49    1.5   153     3.3   974.9    0.00 
 294    1:00   0.00   72.2    50    2.2   159     3.2   974.9    0.00 
 294    1:10   0.00   72.1    50    1.2   179     2.9   974.9    0.00 
 294    1:20   0.00   71.4    51    0.7   138     2.3   974.9    0.00 
 294    1:30   0.00   70.8    51    1.1    94     2.4   974.8    0.00 
 294    1:40   0.00   70.6    52    2.0   222     4.4   974.7    0.00 
 294    1:50   0.00   71.2    50    2.5    56     4.7   974.6    0.00 
 294    2:00   0.00   70.6    52    2.0    23     4.7   974.6    0.00 
 294    2:10   0.00   73.5    36    7.4   176    19.4   974.4    0.00 
 294    2:20   0.00   78.3    25    9.8   183    17.1   974.2    0.00 
 294    2:30   0.00   78.4    25   10.5   185    18.9   974.3    0.00 
 294    2:40   0.00   78.4    27   15.6   176    22.1   974.2    0.00 
 294    2:50   0.00   78.2    27   12.6   180    21.6   974.3    0.00 
 294    3:00   0.00   78.3    27   13.8   180    23.8   974.3    0.00 
 294    3:10   0.00   78.4    27   13.3   178    22.9   974.2    0.00 
 294    3:20   0.00   78.6    26   12.7   181    21.5   974.2    0.00 
 294    3:30   0.00   79.1    25    8.1   181    19.5   974.3    0.00 
 294    3:40   0.00   78.5    26    5.3   176    11.2   974.4    0.00 
 294    3:50   0.00   76.3    34    3.5   255     7.5   974.5    0.00 
 294    4:00   0.00   71.6    50    5.9    68    10.9   974.6    0.00 
 294    4:10   0.00   70.3    53    3.1    56     6.2   974.6    0.00 
 294    4:20   0.00   70.4    52    1.7    68     3.4   974.8    0.00 
 294    4:30   0.00   69.7    53    1.2   159     2.9   974.8    0.00 
 294    4:40   0.00   69.6    52    0.3   186     1.9   974.9    0.00 
 294    4:50   0.00   68.9    53    1.1   260     3.0   974.9    0.00 
 294    5:00   0.00   68.7    53    2.6   225     9.6   974.8    0.00 
 294    5:10   0.00   75.2    27    6.9   173    11.7   974.9    0.00 

Return to Boyd Deep Canyon Reserve graphs page.


Western Regional Climate Center,wrcc@dri.edu